createdAt,value
2018-06-12T00:00:57.333Z,82.88
2018-06-12T00:03:28.209Z,83.23
2018-06-12T00:05:59.377Z,83.16
2018-06-12T00:08:30.557Z,83.69
2018-06-12T00:11:01.615Z,83.81
2018-06-12T00:13:33.280Z,83.96
2018-06-12T00:16:04.373Z,83.89
2018-06-12T00:18:35.391Z,82.75
2018-06-12T00:21:06.613Z,82.69
2018-06-12T00:23:37.656Z,82.56
2018-06-12T00:26:08.669Z,82.65
2018-06-12T00:28:39.728Z,82.94
2018-06-12T00:31:10.668Z,83.42
2018-06-12T00:33:41.695Z,83.65
2018-06-12T00:36:12.548Z,82.77
2018-06-12T00:38:43.208Z,82.55
2018-06-12T00:41:14.145Z,83.27
2018-06-12T00:43:45.586Z,83.46
2018-06-12T00:46:17.311Z,82.96
2018-06-12T00:48:48.089Z,83.04
2018-06-12T00:51:19.242Z,82.52
2018-06-12T00:53:50.766Z,83.06
2018-06-12T00:56:38.305Z,82.79
2018-06-12T00:59:09.414Z,83.30
2018-06-12T01:01:40.635Z,82.73
2018-06-12T01:04:11.838Z,82.95
2018-06-12T01:06:42.785Z,83.21
2018-06-12T01:09:13.750Z,83.48
2018-06-12T01:11:44.730Z,82.86
2018-06-12T01:14:15.651Z,82.55
2018-06-12T01:16:46.855Z,81.81
2018-06-12T01:19:17.765Z,81.79
2018-06-12T01:21:48.235Z,81.31
2018-06-12T01:24:19.152Z,81.64
2018-06-12T01:26:51.622Z,81.45
2018-06-12T01:29:22.777Z,82.18
2018-06-12T01:31:53.942Z,81.86
2018-06-12T01:34:25.176Z,81.76
2018-06-12T01:36:56.064Z,81.61
2018-06-12T01:39:26.901Z,82.50
2018-06-12T01:41:57.922Z,82.42
2018-06-12T01:44:29.023Z,82.15
2018-06-12T01:47:00.410Z,81.98
2018-06-12T01:49:31.635Z,81.23
2018-06-12T01:52:02.617Z,81.71
2018-06-12T01:54:33.790Z,81.44
2018-06-12T01:57:04.344Z,81.96
2018-06-12T01:59:35.412Z,82.45
2018-06-12T02:02:06.557Z,82.21
2018-06-12T02:04:37.625Z,81.78
2018-06-12T02:07:08.583Z,81.94
2018-06-12T02:09:39.475Z,81.78
2018-06-12T02:12:10.636Z,81.39
2018-06-12T02:14:41.719Z,82.16
2018-06-12T02:17:12.912Z,82.40
2018-06-12T02:19:43.998Z,81.56
2018-06-12T02:22:16.141Z,82.00
2018-06-12T02:24:47.013Z,81.86
2018-06-12T02:27:17.918Z,81.71
2018-06-12T02:29:48.643Z,81.63
2018-06-12T02:32:19.741Z,81.84
2018-06-12T02:34:50.665Z,81.87
2018-06-12T02:37:21.690Z,81.73
2018-06-12T02:39:52.700Z,82.42
2018-06-12T02:42:23.830Z,81.84
2018-06-12T02:44:54.631Z,81.59
2018-06-12T02:47:25.795Z,82.61
2018-06-12T02:49:56.784Z,82.49
2018-06-12T02:52:27.992Z,82.00
2018-06-12T02:54:59.840Z,82.56
2018-06-12T02:57:30.985Z,82.05
2018-06-12T03:00:01.700Z,82.74
2018-06-12T03:02:32.683Z,82.52
2018-06-12T03:05:03.746Z,82.42
2018-06-12T03:07:34.762Z,81.97
2018-06-12T03:10:05.862Z,82.24
2018-06-12T03:12:36.948Z,81.41
2018-06-12T03:15:08.121Z,81.80
2018-06-12T03:17:39.060Z,80.91
2018-06-12T03:20:10.190Z,81.94
2018-06-12T03:22:41.221Z,81.35
2018-06-12T03:25:12.189Z,81.53
2018-06-12T03:27:42.997Z,81.89
2018-06-12T03:30:14.140Z,81.07
2018-06-12T03:32:45.240Z,80.96
2018-06-12T03:35:16.209Z,82.23
2018-06-12T03:37:48.303Z,81.67
2018-06-12T03:40:19.435Z,81.76
2018-06-12T03:42:50.377Z,81.97
2018-06-12T03:45:21.311Z,82.06
2018-06-12T03:47:52.282Z,81.91
2018-06-12T03:50:23.483Z,82.19
2018-06-12T03:52:54.619Z,82.27
2018-06-12T03:55:25.583Z,81.96
2018-06-12T03:57:56.726Z,82.74
2018-06-12T04:00:27.938Z,82.52
2018-06-12T04:03:00.050Z,82.83
2018-06-12T04:05:31.110Z,82.69
2018-06-12T04:08:02.023Z,82.26
2018-06-12T04:10:33.021Z,81.65
2018-06-12T04:13:04.174Z,82.75
2018-06-12T04:15:35.193Z,81.68
2018-06-12T04:18:06.156Z,82.45
2018-06-12T04:20:37.038Z,81.48
2018-06-12T04:23:08.099Z,80.79
2018-06-12T04:25:38.967Z,81.21
2018-06-12T04:28:10.099Z,80.93
2018-06-12T04:30:41.095Z,81.15
2018-06-12T04:33:12.282Z,81.52
2018-06-12T04:35:43.255Z,82.19
2018-06-12T04:38:14.333Z,81.49
2018-06-12T04:40:45.458Z,81.30
2018-06-12T04:43:16.565Z,81.59
2018-06-12T04:45:47.583Z,81.61
2018-06-12T04:48:18.724Z,80.26
2018-06-12T04:50:49.675Z,81.93
2018-06-12T04:53:20.739Z,82.56
2018-06-12T04:55:51.809Z,82.12
2018-06-12T04:58:22.982Z,82.36
2018-06-12T05:00:53.696Z,81.67
2018-06-12T05:03:24.204Z,82.12
2018-06-12T05:05:55.184Z,81.65
2018-06-12T05:08:29.651Z,80.86
2018-06-12T05:11:02.503Z,80.48
2018-06-12T05:13:33.703Z,80.17
2018-06-12T05:16:04.732Z,81.23
2018-06-12T05:18:35.907Z,80.79
2018-06-12T05:21:06.742Z,81.01
2018-06-12T05:23:37.268Z,79.97
2018-06-12T05:26:08.844Z,80.27
2018-06-12T05:28:39.529Z,80.41
2018-06-12T05:31:10.533Z,80.91
2018-06-12T05:33:41.622Z,81.07
2018-06-12T05:36:12.272Z,81.08
2018-06-12T05:38:43.293Z,80.02
2018-06-12T05:41:14.431Z,80.13
2018-06-12T05:43:45.409Z,80.45
2018-06-12T05:46:16.307Z,80.19
2018-06-12T05:48:47.475Z,80.07
2018-06-12T05:51:18.414Z,81.09
2018-06-12T05:53:50.632Z,80.92
2018-06-12T05:56:21.609Z,80.61
2018-06-12T05:58:52.689Z,79.78
2018-06-12T06:01:23.929Z,80.54
2018-06-12T06:03:55.014Z,79.97
2018-06-12T06:06:26.370Z,80.58
2018-06-12T06:08:57.405Z,80.38
2018-06-12T06:11:28.571Z,80.10
2018-06-12T06:14:00.319Z,79.12
2018-06-12T06:16:31.452Z,78.62
2018-06-12T06:19:03.591Z,78.59
2018-06-12T06:21:34.601Z,79.06
2018-06-12T06:24:05.786Z,78.59
2018-06-12T06:26:36.880Z,78.98
2018-06-12T06:29:08.157Z,79.06
2018-06-12T06:31:39.543Z,78.95
2018-06-12T06:34:10.742Z,77.51
2018-06-12T06:36:41.229Z,77.41
2018-06-12T06:39:12.089Z,76.07
2018-06-12T06:41:43.107Z,75.59
2018-06-12T06:44:14.310Z,76.97
2018-06-12T06:46:45.434Z,77.25
2018-06-12T06:49:18.079Z,76.92
2018-06-12T06:51:49.065Z,77.36
2018-06-12T06:54:21.064Z,77.09
2018-06-12T06:56:51.937Z,77.15
2018-06-12T06:59:23.114Z,77.04
2018-06-12T07:01:54.044Z,78.72
2018-06-12T07:04:25.231Z,78.76
2018-06-12T07:06:56.403Z,79.62
2018-06-12T07:09:27.511Z,79.19
2018-06-12T07:11:58.476Z,78.77
2018-06-12T07:14:30.094Z,79.77
2018-06-12T07:17:00.926Z,79.88
2018-06-12T07:19:32.177Z,79.90
2018-06-12T07:22:03.431Z,80.61
2018-06-12T07:24:34.681Z,80.60
2018-06-12T07:27:05.787Z,80.60
2018-06-12T07:29:36.722Z,80.86
2018-06-12T07:32:07.911Z,79.97
2018-06-12T07:34:38.985Z,81.48
2018-06-12T07:37:10.073Z,81.58
2018-06-12T07:39:41.183Z,80.83
2018-06-12T07:42:12.153Z,82.23
2018-06-12T07:44:43.164Z,82.40
2018-06-12T07:47:13.842Z,81.50
2018-06-12T07:49:44.880Z,80.83
2018-06-12T07:52:15.793Z,81.23
2018-06-12T07:54:46.818Z,80.63
2018-06-12T07:57:18.025Z,80.13
2018-06-12T07:59:49.152Z,80.79
2018-06-12T08:02:20.289Z,79.52
2018-06-12T08:04:51.439Z,78.89
2018-06-12T08:07:22.431Z,78.96
2018-06-12T08:09:53.482Z,79.01
2018-06-12T08:12:24.561Z,79.30
2018-06-12T08:14:55.690Z,79.57
2018-06-12T08:17:26.875Z,80.37
2018-06-12T08:19:58.026Z,79.73
2018-06-12T08:22:29.102Z,79.25
2018-06-12T08:25:00.666Z,80.13
2018-06-12T08:27:31.717Z,80.55
2018-06-12T08:30:03.014Z,80.43
2018-06-12T08:32:33.888Z,80.11
2018-06-12T08:35:05.205Z,79.46
2018-06-12T08:37:36.314Z,79.13
2018-06-12T08:40:07.665Z,79.92
2018-06-12T08:42:38.669Z,79.83
2018-06-12T08:45:10.803Z,80.39
2018-06-12T08:47:41.900Z,80.13
2018-06-12T08:50:13.127Z,80.78
2018-06-12T08:52:44.346Z,81.24
2018-06-12T08:55:15.450Z,81.50
2018-06-12T08:57:46.414Z,80.92
2018-06-12T09:00:17.605Z,81.67
2018-06-12T09:02:48.213Z,82.31
2018-06-12T09:05:19.301Z,81.67
2018-06-12T09:07:50.888Z,81.58
2018-06-12T09:10:21.822Z,80.41
2018-06-12T09:12:52.924Z,81.45
2018-06-12T09:15:25.097Z,81.81
2018-06-12T09:17:57.248Z,82.36
2018-06-12T09:20:28.356Z,81.70
2018-06-12T09:22:59.330Z,82.03
2018-06-12T09:25:30.281Z,81.44
2018-06-12T09:28:01.092Z,80.75
2018-06-12T09:30:32.154Z,81.97
2018-06-12T09:33:03.203Z,81.71
2018-06-12T09:35:34.271Z,82.70
2018-06-12T09:38:05.477Z,81.70
2018-06-12T09:40:36.576Z,82.02
2018-06-12T09:43:07.695Z,82.55
2018-06-12T09:45:38.842Z,82.12
2018-06-12T09:48:09.885Z,82.13
2018-06-12T09:50:41.133Z,83.19
2018-06-12T09:53:12.204Z,83.73
2018-06-12T09:55:43.302Z,82.67
2018-06-12T09:58:14.524Z,82.60
2018-06-12T10:00:50.559Z,83.50
2018-06-12T10:03:21.635Z,82.16
2018-06-12T10:05:52.595Z,82.72
2018-06-12T10:08:23.555Z,81.78
2018-06-12T10:10:54.607Z,81.76
2018-06-12T10:13:25.537Z,81.75
2018-06-12T10:15:56.627Z,82.03
2018-06-12T10:18:28.191Z,81.97
2018-06-12T10:20:59.266Z,80.85
2018-06-12T10:23:30.288Z,79.46
2018-06-12T10:26:01.319Z,77.97
2018-06-12T10:28:32.431Z,76.81
2018-06-12T10:31:03.530Z,75.90
2018-06-12T10:33:34.645Z,75.55
2018-06-12T10:36:05.765Z,75.21
2018-06-12T10:38:36.876Z,75.99
2018-06-12T10:41:08.988Z,77.31
2018-06-12T10:43:39.962Z,77.73
2018-06-12T10:46:10.871Z,77.45
2018-06-12T10:48:42.032Z,77.09
2018-06-12T10:51:13.182Z,76.41
2018-06-12T10:53:44.419Z,75.90
2018-06-12T10:56:15.556Z,75.40
2018-06-12T10:58:46.526Z,74.80
2018-06-12T11:01:17.875Z,75.66
2018-06-12T11:03:49.035Z,76.99
2018-06-12T11:06:20.236Z,77.91
2018-06-12T11:08:51.350Z,76.95
2018-06-12T11:11:22.487Z,77.14
2018-06-12T11:13:54.255Z,77.54
2018-06-12T11:16:25.477Z,77.84
2018-06-12T11:18:56.507Z,76.86
2018-06-12T11:21:27.919Z,77.55
2018-06-12T11:23:59.035Z,77.42
2018-06-12T11:26:29.845Z,78.01
2018-06-12T11:29:01.038Z,77.75
2018-06-12T11:31:32.701Z,76.28
2018-06-12T11:34:03.855Z,74.76
2018-06-12T11:36:34.944Z,75.44
2018-06-12T11:39:08.314Z,74.57
2018-06-12T11:41:39.379Z,73.91
2018-06-12T11:44:10.320Z,75.30
2018-06-12T11:46:41.373Z,76.40
2018-06-12T11:49:13.304Z,76.95
2018-06-12T11:51:44.576Z,78.61
2018-06-12T11:54:16.837Z,77.54
2018-06-12T11:56:47.935Z,78.02
2018-06-12T11:59:19.023Z,77.32
2018-06-12T12:01:50.629Z,76.84
2018-06-12T12:04:21.696Z,77.73
2018-06-12T12:06:52.925Z,76.44
2018-06-12T12:09:24.011Z,76.36
2018-06-12T12:11:55.265Z,75.95
2018-06-12T12:14:26.396Z,76.06
2018-06-12T12:16:57.411Z,77.05
2018-06-12T12:19:28.551Z,75.83
2018-06-12T12:22:00.250Z,77.06
2018-06-12T12:24:31.304Z,77.87
2018-06-12T12:27:02.361Z,77.81
2018-06-12T12:29:33.505Z,78.54
2018-06-12T12:32:04.683Z,77.58
2018-06-12T12:34:35.776Z,76.06
2018-06-12T12:37:07.026Z,78.28
2018-06-12T12:39:37.975Z,76.90
2018-06-12T12:42:10.489Z,76.87
2018-06-12T12:44:41.687Z,75.68
2018-06-12T12:47:12.862Z,76.50
2018-06-12T12:49:43.927Z,76.08
2018-06-12T12:52:15.106Z,77.31
2018-06-12T12:54:47.003Z,77.52
2018-06-12T12:57:18.092Z,76.42
2018-06-12T12:59:48.898Z,77.94
2018-06-12T13:02:21.258Z,77.76
2018-06-12T13:04:52.536Z,78.59
2018-06-12T13:07:24.082Z,78.27
2018-06-12T13:09:55.184Z,76.78
2018-06-12T13:12:26.228Z,76.05
2018-06-12T13:14:57.335Z,76.00
2018-06-12T13:17:28.453Z,75.68
2018-06-12T13:19:59.709Z,75.71
2018-06-12T13:22:30.790Z,76.37
2018-06-12T13:25:02.046Z,76.29
2018-06-12T13:27:33.849Z,75.12
2018-06-12T13:30:05.013Z,74.84
2018-06-12T13:32:35.900Z,74.57
2018-06-12T13:35:07.096Z,75.08
2018-06-12T13:37:39.079Z,74.17
2018-06-12T13:40:10.486Z,73.98
2018-06-12T13:42:41.579Z,74.05
2018-06-12T13:45:13.143Z,74.23
2018-06-12T13:47:44.321Z,74.32
2018-06-12T13:50:15.435Z,74.18
2018-06-12T13:52:46.551Z,74.44
2018-06-12T13:55:17.574Z,73.44
2018-06-12T13:57:48.515Z,73.37
2018-06-12T14:00:19.536Z,74.02
2018-06-12T14:02:50.389Z,73.92
2018-06-12T14:05:21.445Z,73.13
2018-06-12T14:07:52.559Z,72.97
2018-06-12T14:10:24.236Z,72.44
2018-06-12T14:12:55.129Z,73.25
2018-06-12T14:15:26.220Z,73.26
2018-06-12T14:17:57.307Z,72.88
2018-06-12T14:20:28.525Z,73.07
2018-06-12T14:22:59.718Z,74.59
2018-06-12T14:25:30.921Z,74.26
2018-06-12T14:28:02.932Z,76.18
2018-06-12T14:30:35.250Z,76.01
2018-06-12T14:33:06.777Z,75.58
2018-06-12T14:35:37.972Z,75.55
2018-06-12T14:38:11.140Z,75.88
2018-06-12T14:40:43.335Z,76.06
2018-06-12T14:43:14.664Z,75.53
2018-06-12T14:45:46.059Z,76.16
2018-06-12T14:48:17.056Z,77.16
2018-06-12T14:50:48.105Z,76.64
2018-06-12T14:53:19.148Z,76.32
2018-06-12T14:55:50.593Z,76.42
2018-06-12T14:58:21.804Z,77.01
2018-06-12T15:00:52.807Z,77.43
2018-06-12T15:03:24.023Z,77.22
2018-06-12T15:05:54.833Z,77.67
2018-06-12T15:08:27.058Z,76.48
2018-06-12T15:10:58.047Z,76.71
2018-06-12T15:13:29.068Z,76.86
2018-06-12T15:16:00.181Z,76.80
2018-06-12T15:18:31.452Z,76.03
2018-06-12T15:21:02.577Z,76.47
2018-06-12T15:23:34.473Z,77.21
2018-06-12T15:26:05.174Z,76.66
2018-06-12T15:28:35.728Z,77.82
2018-06-12T15:31:07.006Z,76.66
2018-06-12T15:33:38.258Z,78.00
2018-06-12T15:36:09.578Z,78.37
2018-06-12T15:38:40.874Z,78.18
2018-06-12T15:41:12.047Z,78.34
2018-06-12T15:43:43.294Z,77.45
2018-06-12T15:46:13.988Z,76.83
2018-06-12T15:48:45.330Z,78.42
2018-06-12T15:51:16.464Z,78.03
2018-06-12T15:53:47.628Z,78.08
2018-06-12T15:56:19.156Z,78.37
2018-06-12T15:58:50.214Z,78.95
2018-06-12T16:01:21.496Z,79.04
2018-06-12T16:03:52.617Z,79.67
2018-06-12T16:06:23.871Z,78.74
2018-06-12T16:08:55.001Z,77.72
2018-06-12T16:11:27.097Z,77.69
2018-06-12T16:13:58.198Z,76.32
2018-06-12T16:16:29.313Z,75.54
2018-06-12T16:19:00.742Z,74.47
2018-06-12T16:21:32.080Z,73.65
2018-06-12T16:24:03.276Z,73.57
2018-06-12T16:26:34.549Z,73.68
2018-06-12T16:29:05.519Z,74.70
2018-06-12T16:31:37.359Z,74.31
2018-06-12T16:34:08.420Z,74.68
2018-06-12T16:36:39.617Z,74.77
2018-06-12T16:39:10.757Z,73.54
2018-06-12T16:41:41.981Z,74.61
2018-06-12T16:44:13.047Z,74.93
2018-06-12T16:46:44.267Z,75.26
2018-06-12T16:49:15.426Z,75.77
2018-06-12T16:51:46.459Z,75.91
2018-06-12T16:54:17.476Z,75.73
2018-06-12T16:56:49.179Z,75.63
2018-06-12T16:59:20.159Z,74.76
2018-06-12T17:01:51.356Z,74.83
2018-06-12T17:04:22.790Z,73.90
2018-06-12T17:06:54.065Z,73.61
2018-06-12T17:09:25.204Z,73.67
2018-06-12T17:11:56.341Z,72.75
2018-06-12T17:14:27.509Z,72.87
2018-06-12T17:16:58.694Z,72.92
2018-06-12T17:19:30.646Z,72.33
2018-06-12T17:22:01.855Z,72.77
2018-06-12T17:24:32.992Z,72.01
2018-06-12T17:27:04.232Z,72.35
2018-06-12T17:29:35.578Z,72.64
2018-06-12T17:32:06.964Z,73.07
2018-06-12T17:34:38.055Z,73.17
2018-06-12T17:37:09.316Z,73.39
2018-06-12T17:39:40.581Z,73.71
2018-06-12T17:42:13.053Z,72.80
2018-06-12T17:44:44.142Z,73.44
2018-06-12T17:47:15.404Z,72.07
2018-06-12T17:49:46.488Z,72.11
2018-06-12T17:52:17.703Z,72.95
2018-06-12T17:54:49.779Z,72.39
2018-06-12T17:57:21.356Z,70.95
2018-06-12T17:59:52.470Z,71.09
2018-06-12T18:02:24.525Z,71.49
2018-06-12T18:04:55.958Z,70.94
2018-06-12T18:07:26.805Z,70.64
2018-06-12T18:09:57.930Z,70.80
2018-06-12T18:12:29.456Z,71.58
2018-06-12T18:15:01.034Z,71.70
2018-06-12T18:17:33.746Z,70.92
2018-06-12T18:20:04.910Z,71.24
2018-06-12T18:22:36.209Z,72.04
2018-06-12T18:25:07.701Z,70.83
2018-06-12T18:27:39.052Z,70.32
2018-06-12T18:30:10.245Z,71.61
2018-06-12T18:32:41.771Z,70.86
2018-06-12T18:35:12.821Z,70.59
2018-06-12T18:37:44.018Z,70.38
2018-06-12T18:40:15.237Z,70.07
2018-06-12T18:42:46.427Z,69.03
2018-06-12T18:45:17.603Z,68.73
2018-06-12T18:47:48.801Z,69.05
2018-06-12T18:50:20.038Z,68.66
2018-06-12T18:52:51.233Z,68.58
2018-06-12T18:55:22.362Z,67.93
2018-06-12T18:57:54.986Z,68.25
2018-06-12T19:00:26.284Z,68.12
2018-06-12T19:02:57.262Z,68.60
2018-06-12T19:05:28.166Z,68.29
2018-06-12T19:07:59.118Z,67.59
2018-06-12T19:10:30.010Z,67.70
2018-06-12T19:13:00.935Z,68.10
2018-06-12T19:15:31.881Z,67.54
2018-06-12T19:18:02.736Z,67.32
2018-06-12T19:20:33.632Z,66.89
2018-06-12T19:23:04.685Z,66.47
2018-06-12T19:25:35.622Z,66.02
2018-06-12T19:28:06.581Z,66.54
2018-06-12T19:30:37.737Z,66.94
2018-06-12T19:33:23.157Z,66.52
2018-06-12T19:35:53.942Z,67.09
2018-06-12T19:38:24.892Z,66.72
2018-06-12T19:40:55.761Z,66.48
2018-06-12T19:43:26.878Z,67.15
2018-06-12T19:45:57.769Z,67.68
2018-06-12T19:48:28.716Z,67.44
2018-06-12T19:50:59.803Z,67.56
2018-06-12T19:53:31.907Z,67.24
2018-06-12T19:56:03.286Z,66.98
2018-06-12T19:58:34.190Z,67.44
2018-06-12T20:01:05.082Z,66.86
2018-06-12T20:03:36.164Z,66.26
2018-06-12T20:06:07.486Z,66.71
2018-06-12T20:08:40.660Z,65.67
2018-06-12T20:11:11.483Z,66.38
2018-06-12T20:13:42.789Z,66.32
2018-06-12T20:16:13.743Z,66.82
2018-06-12T20:18:44.549Z,67.11
2018-06-12T20:21:15.807Z,66.13
2018-06-12T20:23:48.209Z,66.59
2018-06-12T20:26:19.217Z,65.60
2018-06-12T20:28:50.451Z,66.10
2018-06-12T20:31:21.567Z,66.09
2018-06-12T20:33:53.817Z,66.49
2018-06-12T20:36:24.814Z,66.27
2018-06-12T20:38:56.010Z,65.86
2018-06-12T20:41:27.021Z,65.55
2018-06-12T20:43:57.848Z,65.80
2018-06-12T20:46:28.793Z,65.48
2018-06-12T20:48:59.628Z,65.11
2018-06-12T20:51:30.849Z,65.02
2018-06-12T20:54:01.951Z,66.15
2018-06-12T20:56:32.798Z,66.44
2018-06-12T20:59:03.667Z,65.79
2018-06-12T21:01:34.701Z,65.64
2018-06-12T21:04:06.129Z,66.23
2018-06-12T21:06:36.960Z,66.39
2018-06-12T21:09:08.068Z,66.03
2018-06-12T21:11:38.750Z,66.23
2018-06-12T21:14:09.889Z,66.07
2018-06-12T21:16:41.068Z,65.60
2018-06-12T21:19:12.142Z,65.54
2018-06-12T21:21:42.614Z,65.44
2018-06-12T21:24:14.039Z,65.36
2018-06-12T21:26:45.233Z,65.34
2018-06-12T21:29:16.195Z,65.08
2018-06-12T21:31:47.182Z,64.12
2018-06-12T21:34:19.120Z,64.17
2018-06-12T21:36:53.102Z,65.18
2018-06-12T21:39:24.538Z,64.74
2018-06-12T21:41:55.364Z,64.48
2018-06-12T21:44:26.106Z,64.03
2018-06-12T21:46:56.899Z,64.22
2018-06-12T21:49:27.794Z,64.00
2018-06-12T21:51:58.609Z,65.48
2018-06-12T21:54:29.685Z,67.00
2018-06-12T21:57:00.786Z,67.11
2018-06-12T21:59:31.564Z,68.13
2018-06-12T22:02:02.378Z,67.20
2018-06-12T22:04:33.141Z,66.69
2018-06-12T22:07:03.953Z,65.91
2018-06-12T22:09:35.303Z,66.23
2018-06-12T22:12:06.444Z,66.58
2018-06-12T22:14:37.591Z,65.83
2018-06-12T22:17:08.337Z,65.61
2018-06-12T22:19:39.988Z,66.08
2018-06-12T22:22:10.519Z,65.34
2018-06-12T22:24:41.033Z,65.80
2018-06-12T22:27:11.515Z,65.71
2018-06-12T22:29:43.411Z,65.55
2018-06-12T22:32:14.150Z,66.08
2018-06-12T22:34:46.190Z,66.18
2018-06-12T22:37:17.206Z,65.63
2018-06-12T22:39:47.988Z,65.73
2018-06-12T22:42:18.971Z,65.42
2018-06-12T22:44:50.027Z,65.90
2018-06-12T22:47:20.940Z,65.65
2018-06-12T22:49:51.889Z,65.88
2018-06-12T22:52:22.609Z,67.66
2018-06-12T22:54:53.571Z,67.43
2018-06-12T22:57:24.857Z,67.02
2018-06-12T22:59:55.874Z,66.43
2018-06-12T23:02:27.070Z,67.14
2018-06-12T23:04:58.186Z,66.93
2018-06-12T23:07:29.286Z,67.05
2018-06-12T23:10:01.480Z,66.98
2018-06-12T23:12:32.577Z,67.53
2018-06-12T23:15:03.814Z,66.24
2018-06-12T23:17:34.896Z,65.43
2018-06-12T23:20:23.502Z,66.12
2018-06-12T23:22:54.573Z,65.33
2018-06-12T23:25:25.731Z,65.46
2018-06-12T23:27:56.774Z,65.81
2018-06-12T23:30:28.680Z,66.09
2018-06-12T23:32:59.697Z,65.56
2018-06-12T23:35:32.509Z,64.93
2018-06-12T23:38:03.597Z,65.04
2018-06-12T23:40:34.500Z,64.77
2018-06-12T23:43:05.440Z,65.59
2018-06-12T23:45:36.133Z,64.19
2018-06-12T23:48:07.255Z,64.81
2018-06-12T23:50:39.135Z,65.90
2018-06-12T23:53:10.192Z,64.83
2018-06-12T23:55:41.265Z,65.68
2018-06-12T23:58:12.394Z,65.35
